createdAt,value
2023-01-31T00:00:10.116Z,75.16
2023-01-31T00:00:33.249Z,75.20
2023-01-31T00:00:56.739Z,75.13
2023-01-31T00:01:21.797Z,75.11
2023-01-31T00:01:45.012Z,74.94
2023-01-31T00:02:08.968Z,74.92
2023-01-31T00:02:32.217Z,74.81
2023-01-31T00:02:55.537Z,74.91
2023-01-31T00:03:18.926Z,74.76
2023-01-31T00:03:43.581Z,74.79
2023-01-31T00:04:11.992Z,74.83
2023-01-31T00:04:35.088Z,74.84
2023-01-31T00:04:58.212Z,74.76
2023-01-31T00:05:21.699Z,74.90
2023-01-31T00:05:45.214Z,74.86
2023-01-31T00:06:12.360Z,74.88
2023-01-31T00:06:37.488Z,74.91
2023-01-31T00:07:00.452Z,74.90
2023-01-31T00:07:23.561Z,74.97
2023-01-31T00:07:47.791Z,75.05
2023-01-31T00:08:10.793Z,75.08
2023-01-31T00:08:35.788Z,75.17
2023-01-31T00:09:00.610Z,75.14
2023-01-31T00:09:24.535Z,75.22
2023-01-31T00:09:47.549Z,75.18
2023-01-31T00:10:11.066Z,75.21
2023-01-31T00:10:34.079Z,75.23
2023-01-31T00:10:59.146Z,75.24
2023-01-31T00:11:23.377Z,75.20
2023-01-31T00:11:47.104Z,75.26
2023-01-31T00:12:10.422Z,75.33
2023-01-31T00:12:36.097Z,75.38
2023-01-31T00:12:59.418Z,75.30
2023-01-31T00:13:22.429Z,75.45
2023-01-31T00:13:45.536Z,75.40
2023-01-31T00:14:10.648Z,75.43
2023-01-31T00:14:34.032Z,75.50
2023-01-31T00:14:57.025Z,75.35
2023-01-31T00:15:20.449Z,75.51
2023-01-31T00:15:43.578Z,75.52
2023-01-31T00:16:07.139Z,75.48
2023-01-31T00:16:31.964Z,75.50
2023-01-31T00:16:55.175Z,75.50
2023-01-31T00:17:18.165Z,75.42
2023-01-31T00:17:41.387Z,75.55
2023-01-31T00:18:04.501Z,75.57
2023-01-31T00:18:29.351Z,75.54
2023-01-31T00:18:52.666Z,75.56
2023-01-31T00:19:16.094Z,75.50
2023-01-31T00:19:39.658Z,75.53
2023-01-31T00:20:03.006Z,75.62
2023-01-31T00:20:26.351Z,75.58
2023-01-31T00:20:49.464Z,75.52
2023-01-31T00:21:13.496Z,75.48
2023-01-31T00:21:37.185Z,75.64
2023-01-31T00:22:00.339Z,75.51
2023-01-31T00:22:23.565Z,75.60
2023-01-31T00:22:46.777Z,75.41
2023-01-31T00:23:09.887Z,75.44
2023-01-31T00:23:33.000Z,75.43
2023-01-31T00:23:56.329Z,75.41
2023-01-31T00:24:19.350Z,75.33
2023-01-31T00:24:42.444Z,75.26
2023-01-31T00:25:06.171Z,75.26
2023-01-31T00:25:29.485Z,75.24
2023-01-31T00:25:52.614Z,75.23
2023-01-31T00:26:16.974Z,75.16
2023-01-31T00:26:40.863Z,75.20
2023-01-31T00:27:04.921Z,75.15
2023-01-31T00:27:29.564Z,75.10
2023-01-31T00:27:52.982Z,75.12
2023-01-31T00:28:16.199Z,75.17
2023-01-31T00:28:39.720Z,75.22
2023-01-31T00:29:03.680Z,75.20
2023-01-31T00:29:26.766Z,75.22
2023-01-31T00:29:50.128Z,75.28
2023-01-31T00:30:13.198Z,75.23
2023-01-31T00:30:36.222Z,75.30
2023-01-31T00:30:59.271Z,75.45
2023-01-31T00:31:23.374Z,75.26
2023-01-31T00:31:46.550Z,75.34
2023-01-31T00:32:09.911Z,75.45
2023-01-31T00:32:34.911Z,75.39
2023-01-31T00:32:58.260Z,75.42
2023-01-31T00:33:23.532Z,75.47
2023-01-31T00:33:47.162Z,75.55
2023-01-31T00:34:10.292Z,75.54
2023-01-31T00:34:33.590Z,75.56
2023-01-31T00:34:56.818Z,75.56
2023-01-31T00:35:20.269Z,75.58
2023-01-31T00:35:44.159Z,75.52
2023-01-31T00:36:15.562Z,75.62
2023-01-31T00:36:38.951Z,75.69
2023-01-31T00:37:04.651Z,75.64
2023-01-31T00:37:29.306Z,75.67
2023-01-31T00:37:52.418Z,75.57
2023-01-31T00:38:15.526Z,75.64
2023-01-31T00:38:39.171Z,75.71
2023-01-31T00:39:02.574Z,75.77
2023-01-31T00:39:25.853Z,75.62
2023-01-31T00:39:49.005Z,75.65
2023-01-31T00:40:13.764Z,75.67
2023-01-31T00:40:37.231Z,75.60
2023-01-31T00:41:00.538Z,75.72
2023-01-31T00:41:25.155Z,75.66
2023-01-31T00:41:48.258Z,75.62
2023-01-31T00:42:11.270Z,75.63
2023-01-31T00:42:36.270Z,75.73
2023-01-31T00:42:59.666Z,75.71
2023-01-31T00:43:22.971Z,75.59
2023-01-31T00:43:45.982Z,75.61
2023-01-31T00:44:09.608Z,75.55
2023-01-31T00:44:34.608Z,75.51
2023-01-31T00:44:57.775Z,75.54
2023-01-31T00:45:21.226Z,75.50
2023-01-31T00:45:44.821Z,75.43
2023-01-31T00:46:08.036Z,75.30
2023-01-31T00:46:31.339Z,75.34
2023-01-31T00:46:54.504Z,75.45
2023-01-31T00:47:17.746Z,75.30
2023-01-31T00:47:41.106Z,75.30
2023-01-31T00:48:08.548Z,75.27
2023-01-31T00:48:35.986Z,75.17
2023-01-31T00:49:02.721Z,75.11
2023-01-31T00:49:27.101Z,75.25
2023-01-31T00:49:50.481Z,75.24
2023-01-31T00:50:16.970Z,75.18
2023-01-31T00:50:40.083Z,75.22
2023-01-31T00:51:03.715Z,75.30
2023-01-31T00:51:27.231Z,75.36
2023-01-31T00:51:50.559Z,75.35
2023-01-31T00:52:13.708Z,75.34
2023-01-31T00:52:37.125Z,75.52
2023-01-31T00:53:01.351Z,75.46
2023-01-31T00:53:25.860Z,75.41
2023-01-31T00:53:48.992Z,75.54
2023-01-31T00:54:12.018Z,75.45
2023-01-31T00:54:35.497Z,75.48
2023-01-31T00:54:58.857Z,75.61
2023-01-31T00:55:22.285Z,75.59
2023-01-31T00:55:45.501Z,75.59
2023-01-31T00:56:10.543Z,75.52
2023-01-31T00:56:36.072Z,75.59
2023-01-31T00:57:03.222Z,75.55
2023-01-31T00:57:26.425Z,75.65
2023-01-31T00:57:50.075Z,75.67
2023-01-31T00:58:13.292Z,75.60
2023-01-31T00:58:37.318Z,75.58
2023-01-31T00:59:01.332Z,75.60
2023-01-31T00:59:24.753Z,75.72
2023-01-31T00:59:48.071Z,75.69
2023-01-31T01:00:11.802Z,75.68
2023-01-31T01:00:35.656Z,75.64
2023-01-31T01:01:18.789Z,75.57
2023-01-31T01:01:42.335Z,75.49
2023-01-31T01:02:05.260Z,75.61
2023-01-31T01:02:28.338Z,75.63
2023-01-31T01:02:51.349Z,75.62
2023-01-31T01:03:14.565Z,75.57
2023-01-31T01:03:37.858Z,75.54
2023-01-31T01:04:01.166Z,75.42
2023-01-31T01:04:29.737Z,75.41
2023-01-31T01:04:54.793Z,75.38
2023-01-31T01:05:18.647Z,75.36
2023-01-31T01:05:42.556Z,75.35
2023-01-31T01:06:06.100Z,75.33
2023-01-31T01:06:29.806Z,75.27
2023-01-31T01:06:53.393Z,75.24
2023-01-31T01:07:16.753Z,75.18
2023-01-31T01:07:39.864Z,75.25
2023-01-31T01:08:03.080Z,75.19
2023-01-31T01:08:26.379Z,75.27
2023-01-31T01:08:49.412Z,75.18
2023-01-31T01:09:12.833Z,75.15
2023-01-31T01:09:36.338Z,75.26
2023-01-31T01:09:59.469Z,75.17
2023-01-31T01:10:22.607Z,75.32
2023-01-31T01:10:45.905Z,75.25
2023-01-31T01:11:18.962Z,75.42
2023-01-31T01:11:42.053Z,75.37
2023-01-31T01:12:06.088Z,75.45
2023-01-31T01:12:30.332Z,75.40
2023-01-31T01:12:53.258Z,75.37
2023-01-31T01:13:16.348Z,75.29
2023-01-31T01:13:43.861Z,75.42
2023-01-31T01:14:06.870Z,75.53
2023-01-31T01:14:29.987Z,75.46
2023-01-31T01:14:53.304Z,75.46
2023-01-31T01:15:18.389Z,75.62
2023-01-31T01:15:42.353Z,75.53
2023-01-31T01:16:06.247Z,75.45
2023-01-31T01:16:34.188Z,75.61
2023-01-31T01:16:59.312Z,75.58
2023-01-31T01:17:22.725Z,75.48
2023-01-31T01:17:45.941Z,75.54
2023-01-31T01:18:09.683Z,75.51
2023-01-31T01:18:36.173Z,75.62
2023-01-31T01:19:01.625Z,75.58
2023-01-31T01:19:25.252Z,75.54
2023-01-31T01:19:48.367Z,75.55
2023-01-31T01:20:11.993Z,75.58
2023-01-31T01:20:36.682Z,75.50
2023-01-31T01:21:04.764Z,75.53
2023-01-31T01:21:28.708Z,75.36
2023-01-31T01:21:54.376Z,75.42
2023-01-31T01:22:17.484Z,75.31
2023-01-31T01:22:42.864Z,75.33
2023-01-31T01:23:05.857Z,75.29
2023-01-31T01:23:30.613Z,75.26
2023-01-31T01:23:53.936Z,75.19
2023-01-31T01:24:18.443Z,75.19
2023-01-31T01:24:44.421Z,75.18
2023-01-31T01:25:08.590Z,75.16
2023-01-31T01:25:36.713Z,75.10
2023-01-31T01:25:59.748Z,75.13
2023-01-31T01:26:29.142Z,75.16
2023-01-31T01:26:52.383Z,75.15
2023-01-31T01:27:15.505Z,75.17
2023-01-31T01:27:38.760Z,75.17
2023-01-31T01:28:01.949Z,75.18
2023-01-31T01:28:25.752Z,75.22
2023-01-31T01:28:50.323Z,75.27
2023-01-31T01:29:13.543Z,75.21
2023-01-31T01:29:36.852Z,75.33
2023-01-31T01:30:00.386Z,75.25
2023-01-31T01:30:24.001Z,75.25
2023-01-31T01:30:47.116Z,75.19
2023-01-31T01:31:10.954Z,75.22
2023-01-31T01:31:37.724Z,75.22
2023-01-31T01:32:01.616Z,75.22
2023-01-31T01:32:25.245Z,75.19
2023-01-31T01:32:49.026Z,75.15
2023-01-31T01:33:12.254Z,75.24
2023-01-31T01:33:36.303Z,75.14
2023-01-31T01:34:02.871Z,75.14
2023-01-31T01:34:27.173Z,75.10
2023-01-31T01:34:50.220Z,75.11
2023-01-31T01:35:13.337Z,75.11
2023-01-31T01:35:37.064Z,75.03
2023-01-31T01:36:04.067Z,75.00
2023-01-31T01:36:27.617Z,75.03
2023-01-31T01:36:50.909Z,75.01
2023-01-31T01:37:20.312Z,74.98
2023-01-31T01:37:43.442Z,74.94
2023-01-31T01:38:06.381Z,74.93
2023-01-31T01:38:30.177Z,74.92
2023-01-31T01:38:53.408Z,74.77
2023-01-31T01:39:16.858Z,74.74
2023-01-31T01:39:40.794Z,74.70
2023-01-31T01:40:06.506Z,74.68
2023-01-31T01:40:34.899Z,74.61
2023-01-31T01:40:58.206Z,74.61
2023-01-31T01:41:22.138Z,74.48
2023-01-31T01:41:46.480Z,74.46
2023-01-31T01:42:14.100Z,74.59
2023-01-31T01:42:37.310Z,74.49
2023-01-31T01:43:00.532Z,74.50
2023-01-31T01:43:39.190Z,74.52
2023-01-31T01:44:03.224Z,74.41
2023-01-31T01:44:45.466Z,74.46
2023-01-31T01:45:15.920Z,74.68
2023-01-31T01:45:39.083Z,74.58
2023-01-31T01:46:02.131Z,74.55
2023-01-31T01:46:29.250Z,74.60
2023-01-31T01:46:52.805Z,74.53
2023-01-31T01:47:23.472Z,74.55
2023-01-31T01:47:47.317Z,74.58
2023-01-31T01:48:12.169Z,74.55
2023-01-31T01:48:35.263Z,74.70
2023-01-31T01:49:01.351Z,74.62
2023-01-31T01:49:42.353Z,74.59
2023-01-31T01:50:35.168Z,74.69
2023-01-31T01:51:00.114Z,74.70
2023-01-31T01:51:23.207Z,74.67
2023-01-31T01:51:48.161Z,74.67
2023-01-31T01:52:12.215Z,74.71
2023-01-31T01:52:39.910Z,74.73
2023-01-31T01:53:05.887Z,74.72
2023-01-31T01:53:31.968Z,74.77
2023-01-31T01:53:56.314Z,74.74
2023-01-31T01:54:21.375Z,74.65
2023-01-31T01:54:46.731Z,74.70
2023-01-31T01:55:13.142Z,74.73
2023-01-31T01:55:37.565Z,74.67
2023-01-31T01:56:04.156Z,74.71
2023-01-31T01:56:29.286Z,74.67
2023-01-31T01:56:53.972Z,74.74
2023-01-31T01:57:18.826Z,74.80
2023-01-31T01:57:48.064Z,74.76
2023-01-31T01:58:17.007Z,74.75
2023-01-31T01:58:42.985Z,74.70
2023-01-31T01:59:21.645Z,74.73
2023-01-31T01:59:46.101Z,74.68
2023-01-31T02:00:09.819Z,74.70
2023-01-31T02:00:37.534Z,74.72
2023-01-31T02:01:00.606Z,74.65
2023-01-31T02:01:24.303Z,74.65
2023-01-31T02:01:47.747Z,74.74
2023-01-31T02:02:11.038Z,74.70
2023-01-31T02:02:34.166Z,74.65
2023-01-31T02:02:58.778Z,74.57
2023-01-31T02:03:21.786Z,74.58
2023-01-31T02:03:45.038Z,74.51
2023-01-31T02:04:09.245Z,74.57
2023-01-31T02:04:33.264Z,74.45
2023-01-31T02:04:56.389Z,74.40
2023-01-31T02:05:28.606Z,74.40
2023-01-31T02:05:53.008Z,74.32
2023-01-31T02:06:16.233Z,74.25
2023-01-31T02:06:39.384Z,74.30
2023-01-31T02:07:02.969Z,74.20
2023-01-31T02:07:26.707Z,74.28
2023-01-31T02:07:51.584Z,74.32
2023-01-31T02:08:18.075Z,74.25
2023-01-31T02:08:41.501Z,74.30
2023-01-31T02:09:07.069Z,74.29
2023-01-31T02:09:30.179Z,74.29
2023-01-31T02:09:58.823Z,74.24
2023-01-31T02:10:28.701Z,74.35
2023-01-31T02:11:06.114Z,74.39
2023-01-31T02:11:30.047Z,74.22
2023-01-31T02:11:54.080Z,74.44
2023-01-31T02:12:17.298Z,74.31
2023-01-31T02:12:41.862Z,74.43
2023-01-31T02:13:05.264Z,74.37
2023-01-31T02:13:28.480Z,74.49
2023-01-31T02:13:53.741Z,74.47
2023-01-31T02:14:16.756Z,74.45
2023-01-31T02:14:40.779Z,74.44
2023-01-31T02:15:04.829Z,74.43
2023-01-31T02:15:28.189Z,74.45
2023-01-31T02:15:51.568Z,74.39
2023-01-31T02:16:15.301Z,74.42
2023-01-31T02:16:38.596Z,74.55
2023-01-31T02:17:01.927Z,74.43
2023-01-31T02:17:25.643Z,74.40
2023-01-31T02:17:49.459Z,74.27
2023-01-31T02:18:12.624Z,74.42
2023-01-31T02:18:35.729Z,74.44
2023-01-31T02:18:59.041Z,74.37
2023-01-31T02:19:28.994Z,74.40
2023-01-31T02:19:55.341Z,74.39
2023-01-31T02:20:24.330Z,74.37
2023-01-31T02:20:49.794Z,74.52
2023-01-31T02:21:21.803Z,74.40
2023-01-31T02:22:03.520Z,74.42
2023-01-31T02:22:34.117Z,74.46
2023-01-31T02:23:12.395Z,74.32
2023-01-31T02:23:38.340Z,74.40
2023-01-31T02:24:04.422Z,74.37
2023-01-31T02:24:28.668Z,74.39
2023-01-31T02:24:52.184Z,74.38
2023-01-31T02:25:22.689Z,74.21
2023-01-31T02:25:46.534Z,74.17
2023-01-31T02:26:31.949Z,74.17
2023-01-31T02:27:00.140Z,74.15
2023-01-31T02:27:31.526Z,73.99
2023-01-31T02:28:08.045Z,74.03
2023-01-31T02:28:37.293Z,73.91
2023-01-31T02:29:20.656Z,73.99
2023-01-31T02:29:52.874Z,74.04
2023-01-31T02:30:18.860Z,74.06
2023-01-31T02:31:01.306Z,74.03
2023-01-31T02:31:26.514Z,74.15
2023-01-31T02:31:55.807Z,74.12
2023-01-31T02:32:35.518Z,74.18
2023-01-31T02:33:14.759Z,74.20
2023-01-31T02:33:45.149Z,74.30
2023-01-31T02:34:17.250Z,74.34
2023-01-31T02:34:52.855Z,74.40
2023-01-31T02:35:19.509Z,74.28
2023-01-31T02:35:50.550Z,74.31
2023-01-31T02:36:17.728Z,74.39
2023-01-31T02:36:45.138Z,74.40
2023-01-31T02:37:11.221Z,74.43
2023-01-31T02:37:41.288Z,74.39
2023-01-31T02:38:08.439Z,74.33
2023-01-31T02:38:41.324Z,74.51
2023-01-31T02:39:23.155Z,74.39
2023-01-31T02:39:52.714Z,74.37
2023-01-31T02:40:34.895Z,74.42
2023-01-31T02:41:01.805Z,74.37
2023-01-31T02:41:47.157Z,74.30
2023-01-31T02:42:18.969Z,74.37
2023-01-31T02:42:48.316Z,74.42
2023-01-31T02:43:12.867Z,74.42
2023-01-31T02:44:15.763Z,74.34
2023-01-31T02:44:59.938Z,74.34
2023-01-31T02:45:27.662Z,74.26
2023-01-31T02:45:52.581Z,74.26
2023-01-31T02:46:16.305Z,74.26
2023-01-31T02:46:44.569Z,74.22
2023-01-31T02:47:15.763Z,74.15
2023-01-31T02:47:41.452Z,74.08
2023-01-31T02:48:08.153Z,74.03
2023-01-31T02:48:55.903Z,74.06
2023-01-31T02:49:35.778Z,73.91
2023-01-31T02:50:11.782Z,73.91
2023-01-31T02:50:46.999Z,73.94
2023-01-31T02:51:14.578Z,74.03
2023-01-31T02:51:41.361Z,73.96
2023-01-31T02:52:24.740Z,73.96
2023-01-31T02:52:53.578Z,74.19
2023-01-31T02:53:21.460Z,73.95
2023-01-31T02:53:45.749Z,73.98
2023-01-31T02:54:10.387Z,73.98
2023-01-31T02:54:54.377Z,74.19
2023-01-31T02:55:38.548Z,74.11
2023-01-31T02:56:18.072Z,74.19
2023-01-31T02:56:41.754Z,74.24
2023-01-31T02:57:07.039Z,74.09
2023-01-31T02:57:30.354Z,74.22
2023-01-31T02:57:54.710Z,74.21
2023-01-31T02:58:18.403Z,74.30
2023-01-31T02:58:42.743Z,74.27
2023-01-31T02:59:20.735Z,74.25
2023-01-31T02:59:44.631Z,74.35
2023-01-31T03:00:08.177Z,74.25
2023-01-31T03:00:32.881Z,74.29
2023-01-31T03:00:56.681Z,74.28
2023-01-31T03:01:23.297Z,74.36
2023-01-31T03:01:48.908Z,74.37
2023-01-31T03:02:12.108Z,74.39
2023-01-31T03:02:35.401Z,74.34
2023-01-31T03:02:58.852Z,74.34
2023-01-31T03:03:23.028Z,74.36
2023-01-31T03:03:46.076Z,74.36
2023-01-31T03:04:10.750Z,74.37
2023-01-31T03:04:34.259Z,74.41
2023-01-31T03:04:57.270Z,74.41
2023-01-31T03:05:20.630Z,74.32
2023-01-31T03:05:44.012Z,74.34
2023-01-31T03:06:11.040Z,74.31
2023-01-31T03:06:36.919Z,74.38
2023-01-31T03:07:26.705Z,74.43
2023-01-31T03:07:53.286Z,74.36
2023-01-31T03:08:16.810Z,74.41
2023-01-31T03:08:42.135Z,74.39
2023-01-31T03:09:05.903Z,74.33
2023-01-31T03:09:49.795Z,74.40
2023-01-31T03:10:31.301Z,74.33
2023-01-31T03:11:01.268Z,74.43
2023-01-31T03:11:26.240Z,74.41
2023-01-31T03:12:09.641Z,74.40
2023-01-31T03:13:05.335Z,74.39
2023-01-31T03:13:31.917Z,74.48
2023-01-31T03:14:02.392Z,74.45
2023-01-31T03:14:27.374Z,74.47
2023-01-31T03:15:02.440Z,74.43
2023-01-31T03:16:07.988Z,74.42
2023-01-31T03:16:51.334Z,74.46
2023-01-31T03:17:33.316Z,74.48
2023-01-31T03:18:01.434Z,74.46
2023-01-31T03:18:29.448Z,74.48
2023-01-31T03:18:55.529Z,74.52
2023-01-31T03:19:23.450Z,74.45
2023-01-31T03:19:46.963Z,74.55
2023-01-31T03:20:13.268Z,74.50
2023-01-31T03:20:41.186Z,74.59
2023-01-31T03:21:07.559Z,74.58
2023-01-31T03:21:32.873Z,74.62
2023-01-31T03:21:57.744Z,74.58
2023-01-31T03:22:26.010Z,74.56
2023-01-31T03:22:53.097Z,74.65
2023-01-31T03:23:27.047Z,74.63
2023-01-31T03:23:51.923Z,74.59
2023-01-31T03:24:15.367Z,74.76
2023-01-31T03:24:38.542Z,74.64
2023-01-31T03:25:20.278Z,74.67
2023-01-31T03:25:43.794Z,74.79
2023-01-31T03:26:06.918Z,74.74
2023-01-31T03:26:30.292Z,74.74
2023-01-31T03:26:54.184Z,74.75
2023-01-31T03:27:17.707Z,74.76
2023-01-31T03:27:44.175Z,74.80
2023-01-31T03:28:09.436Z,74.79
2023-01-31T03:28:36.267Z,74.62
2023-01-31T03:28:59.443Z,74.65
2023-01-31T03:29:23.034Z,74.65
2023-01-31T03:29:47.820Z,74.52
2023-01-31T03:30:15.344Z,74.69
2023-01-31T03:30:39.959Z,74.61
2023-01-31T03:31:06.535Z,74.50
2023-01-31T03:31:31.843Z,74.50
2023-01-31T03:31:58.973Z,74.54
2023-01-31T03:32:27.369Z,74.47
2023-01-31T03:32:52.832Z,74.58
2023-01-31T03:33:24.066Z,74.47
2023-01-31T03:33:51.442Z,74.57
2023-01-31T03:34:14.776Z,74.59
2023-01-31T03:34:38.381Z,74.72
2023-01-31T03:35:01.697Z,74.68
2023-01-31T03:35:26.174Z,74.73
2023-01-31T03:35:52.477Z,74.81
2023-01-31T03:36:27.305Z,74.79
2023-01-31T03:36:56.357Z,74.94
2023-01-31T03:37:41.560Z,74.92
2023-01-31T03:38:12.364Z,75.07
2023-01-31T03:38:36.043Z,75.09
2023-01-31T03:39:05.731Z,75.10
2023-01-31T03:39:48.075Z,75.15
2023-01-31T03:40:21.648Z,75.16
2023-01-31T03:40:47.389Z,75.18
2023-01-31T03:41:33.718Z,75.14
2023-01-31T03:41:58.265Z,75.22
2023-01-31T03:42:40.707Z,75.30
2023-01-31T03:43:04.024Z,75.07
2023-01-31T03:43:32.398Z,75.32
2023-01-31T03:43:59.050Z,75.28
2023-01-31T03:44:26.580Z,75.24
2023-01-31T03:45:02.774Z,75.25
2023-01-31T03:45:34.573Z,75.23
2023-01-31T03:46:02.320Z,75.33
2023-01-31T03:46:31.388Z,75.27
2023-01-31T03:46:56.805Z,75.26
2023-01-31T03:47:24.014Z,75.23
2023-01-31T03:47:47.632Z,75.21
2023-01-31T03:48:14.519Z,75.21
2023-01-31T03:48:39.595Z,75.25
2023-01-31T03:49:03.420Z,75.25
2023-01-31T03:49:27.054Z,75.23
2023-01-31T03:49:50.672Z,75.22
2023-01-31T03:50:15.526Z,75.30
2023-01-31T03:50:44.979Z,75.28
2023-01-31T03:51:09.010Z,75.29
2023-01-31T03:51:32.456Z,75.24
2023-01-31T03:51:58.207Z,75.23
2023-01-31T03:52:29.924Z,75.27
2023-01-31T03:52:55.629Z,75.23
2023-01-31T03:53:25.754Z,75.32
2023-01-31T03:53:50.397Z,75.22
2023-01-31T03:54:14.855Z,75.29
2023-01-31T03:54:40.012Z,75.34
2023-01-31T03:55:05.265Z,75.30
2023-01-31T03:55:31.143Z,75.38
2023-01-31T03:55:58.864Z,75.35
2023-01-31T03:56:27.191Z,75.25
2023-01-31T03:56:58.007Z,75.30
2023-01-31T03:57:22.836Z,75.30
2023-01-31T03:57:46.450Z,75.28
2023-01-31T03:58:09.462Z,75.38
2023-01-31T03:58:34.008Z,75.32
2023-01-31T03:58:58.863Z,75.36
2023-01-31T03:59:25.043Z,75.32
2023-01-31T03:59:48.984Z,75.43
2023-01-31T04:00:14.175Z,75.30
2023-01-31T04:00:43.601Z,75.30
2023-01-31T04:01:07.527Z,75.22
2023-01-31T04:01:32.645Z,75.41
2023-01-31T04:01:56.372Z,75.29
2023-01-31T04:02:19.729Z,75.36
2023-01-31T04:02:43.862Z,75.32
2023-01-31T04:03:11.890Z,75.35
2023-01-31T04:03:48.904Z,75.36
2023-01-31T04:04:14.078Z,75.47
2023-01-31T04:04:40.968Z,75.42
2023-01-31T04:05:07.460Z,75.41
2023-01-31T04:05:32.593Z,75.49
2023-01-31T04:05:57.169Z,75.47
2023-01-31T04:06:20.292Z,75.42
2023-01-31T04:06:43.411Z,75.47
2023-01-31T04:07:07.222Z,75.51
2023-01-31T04:07:32.492Z,75.50
2023-01-31T04:08:01.018Z,75.51
2023-01-31T04:08:30.781Z,75.42
2023-01-31T04:08:56.968Z,75.51
2023-01-31T04:09:22.811Z,75.52
2023-01-31T04:09:46.463Z,75.61
2023-01-31T04:10:12.964Z,75.62
2023-01-31T04:10:36.879Z,75.55
2023-01-31T04:11:05.484Z,75.55
2023-01-31T04:11:28.650Z,75.55
2023-01-31T04:11:51.862Z,75.53
2023-01-31T04:12:15.580Z,75.66
2023-01-31T04:12:39.251Z,75.57
2023-01-31T04:13:02.933Z,75.53
2023-01-31T04:13:26.177Z,75.59
2023-01-31T04:13:49.388Z,75.66
2023-01-31T04:14:12.891Z,75.61
2023-01-31T04:14:36.109Z,75.84
2023-01-31T04:14:59.737Z,75.61
2023-01-31T04:15:23.061Z,75.62
2023-01-31T04:15:46.053Z,75.54
2023-01-31T04:16:09.579Z,75.64
2023-01-31T04:16:33.415Z,75.57
2023-01-31T04:16:56.631Z,75.43
2023-01-31T04:17:19.692Z,75.35
2023-01-31T04:17:42.767Z,75.44
2023-01-31T04:18:06.585Z,75.41
2023-01-31T04:18:29.699Z,75.34
2023-01-31T04:18:52.872Z,75.34
2023-01-31T04:19:16.034Z,75.31
2023-01-31T04:19:39.354Z,75.27
2023-01-31T04:20:02.569Z,75.34
2023-01-31T04:20:26.293Z,75.32
2023-01-31T04:20:49.174Z,75.38
2023-01-31T04:21:13.960Z,75.40
2023-01-31T04:21:36.965Z,75.44
2023-01-31T04:22:00.098Z,75.39
2023-01-31T04:22:23.197Z,75.41
2023-01-31T04:22:46.716Z,75.57
2023-01-31T04:23:10.548Z,75.51
2023-01-31T04:23:34.178Z,75.49
2023-01-31T04:23:58.220Z,75.64
2023-01-31T04:24:22.649Z,75.65
2023-01-31T04:24:46.281Z,75.73
2023-01-31T04:25:10.254Z,75.78
2023-01-31T04:25:33.726Z,75.94
2023-01-31T04:25:57.772Z,75.85
2023-01-31T04:26:20.902Z,75.89
2023-01-31T04:26:45.176Z,75.88
2023-01-31T04:27:08.952Z,75.88
2023-01-31T04:27:32.170Z,75.99
2023-01-31T04:27:55.295Z,75.96
2023-01-31T04:28:18.391Z,75.92
2023-01-31T04:28:41.715Z,76.01
2023-01-31T04:29:04.845Z,76.01
2023-01-31T04:29:28.050Z,76.04
2023-01-31T04:29:51.157Z,76.02
2023-01-31T04:30:16.943Z,76.16
2023-01-31T04:30:42.498Z,76.10
2023-01-31T04:31:08.877Z,76.12
2023-01-31T04:31:32.789Z,76.12
2023-01-31T04:31:56.081Z,76.13
2023-01-31T04:32:19.453Z,76.18
2023-01-31T04:32:42.574Z,76.09
2023-01-31T04:33:05.886Z,76.29
2023-01-31T04:33:28.897Z,76.17
2023-01-31T04:33:51.918Z,76.13
2023-01-31T04:34:15.026Z,76.16
2023-01-31T04:34:38.052Z,76.26
2023-01-31T04:35:02.460Z,76.19
2023-01-31T04:35:26.002Z,76.22
2023-01-31T04:35:50.445Z,76.21
2023-01-31T04:36:13.560Z,76.12
2023-01-31T04:36:36.578Z,76.13
2023-01-31T04:36:59.615Z,76.10
2023-01-31T04:37:22.654Z,76.14
2023-01-31T04:37:45.811Z,76.22
2023-01-31T04:38:11.896Z,76.12
2023-01-31T04:38:37.771Z,76.16
2023-01-31T04:39:01.290Z,76.17
2023-01-31T04:39:24.405Z,76.12
2023-01-31T04:39:47.622Z,76.10
2023-01-31T04:40:12.377Z,76.17
2023-01-31T04:40:35.392Z,76.16
2023-01-31T04:40:58.601Z,76.12
2023-01-31T04:41:21.712Z,76.13
2023-01-31T04:41:44.827Z,76.06
2023-01-31T04:42:08.441Z,76.04
2023-01-31T04:42:31.979Z,76.19
2023-01-31T04:42:55.270Z,76.13
2023-01-31T04:43:18.304Z,76.08
2023-01-31T04:43:41.330Z,76.22
2023-01-31T04:44:04.531Z,76.19
2023-01-31T04:44:27.646Z,76.25
2023-01-31T04:44:50.821Z,76.23
2023-01-31T04:45:14.079Z,76.11
2023-01-31T04:45:39.072Z,76.17
2023-01-31T04:46:03.172Z,76.33
2023-01-31T04:46:26.415Z,76.18
2023-01-31T04:46:49.940Z,76.17
2023-01-31T04:47:13.236Z,76.20
2023-01-31T04:47:36.560Z,76.31
2023-01-31T04:47:59.564Z,76.25
2023-01-31T04:48:22.675Z,76.24
2023-01-31T04:48:45.906Z,76.13
2023-01-31T04:49:09.877Z,76.33
2023-01-31T04:49:33.087Z,76.31
2023-01-31T04:49:56.362Z,76.31
2023-01-31T04:50:19.484Z,76.33
2023-01-31T04:50:42.998Z,76.25
2023-01-31T04:51:06.110Z,76.28
2023-01-31T04:51:29.325Z,76.30
2023-01-31T04:51:52.543Z,76.35
2023-01-31T04:52:15.694Z,76.33
2023-01-31T04:52:38.888Z,76.34
2023-01-31T04:53:02.300Z,76.35
2023-01-31T04:53:25.681Z,76.36
2023-01-31T04:53:52.100Z,76.47
2023-01-31T04:54:15.628Z,76.28
2023-01-31T04:54:39.367Z,76.38
2023-01-31T04:55:02.600Z,76.53
2023-01-31T04:55:27.656Z,76.35
2023-01-31T04:55:53.610Z,76.31
2023-01-31T04:56:16.922Z,76.41
2023-01-31T04:56:39.962Z,76.40
2023-01-31T04:57:03.664Z,76.44
2023-01-31T04:57:26.977Z,76.39
2023-01-31T04:57:49.905Z,76.45
2023-01-31T04:58:13.018Z,76.48
2023-01-31T04:58:36.810Z,76.54
2023-01-31T04:59:00.154Z,76.48
2023-01-31T04:59:23.091Z,76.59
2023-01-31T04:59:46.180Z,76.60
2023-01-31T05:00:10.110Z,76.55
2023-01-31T05:00:34.906Z,76.51
2023-01-31T05:00:58.406Z,76.55
2023-01-31T05:01:21.803Z,76.44
2023-01-31T05:01:45.018Z,76.37
2023-01-31T05:02:08.444Z,76.41
2023-01-31T05:02:32.207Z,76.33
2023-01-31T05:02:55.539Z,76.38
2023-01-31T05:03:18.702Z,76.25
2023-01-31T05:03:42.333Z,76.25
2023-01-31T05:04:05.800Z,76.19
2023-01-31T05:04:29.099Z,76.25
2023-01-31T05:04:52.384Z,76.08
2023-01-31T05:05:15.327Z,76.23
2023-01-31T05:05:39.293Z,76.18
2023-01-31T05:06:03.875Z,76.19
2023-01-31T05:06:27.206Z,76.21
2023-01-31T05:06:50.378Z,76.23
2023-01-31T05:07:13.526Z,76.33
2023-01-31T05:07:36.619Z,76.32
2023-01-31T05:07:59.854Z,76.38
2023-01-31T05:08:22.871Z,76.37
2023-01-31T05:08:48.750Z,76.48
2023-01-31T05:09:13.083Z,76.50
2023-01-31T05:09:36.302Z,76.69
2023-01-31T05:09:59.415Z,76.54
2023-01-31T05:10:22.489Z,76.59
2023-01-31T05:10:46.507Z,76.67
2023-01-31T05:11:11.107Z,76.70
2023-01-31T05:11:37.292Z,76.83
2023-01-31T05:12:00.423Z,76.88
2023-01-31T05:12:28.633Z,76.72
2023-01-31T05:12:52.776Z,76.74
2023-01-31T05:13:20.995Z,76.77
2023-01-31T05:13:46.307Z,76.78
2023-01-31T05:14:09.576Z,76.97
2023-01-31T05:14:32.790Z,76.91
2023-01-31T05:14:56.009Z,77.03
2023-01-31T05:15:19.339Z,76.83
2023-01-31T05:15:42.824Z,76.83
2023-01-31T05:16:09.474Z,76.89
2023-01-31T05:16:33.135Z,76.92
2023-01-31T05:16:56.492Z,76.95
2023-01-31T05:17:26.259Z,76.98
2023-01-31T05:18:02.923Z,76.95
2023-01-31T05:18:26.706Z,77.08
2023-01-31T05:18:51.051Z,77.03
2023-01-31T05:19:17.381Z,77.10
2023-01-31T05:19:42.693Z,77.10
2023-01-31T05:20:06.487Z,77.12
2023-01-31T05:20:31.502Z,77.04
2023-01-31T05:20:55.298Z,77.00
2023-01-31T05:21:18.552Z,77.05
2023-01-31T05:22:00.368Z,76.99
2023-01-31T05:22:23.408Z,77.07
2023-01-31T05:22:49.638Z,77.16
2023-01-31T05:23:13.677Z,77.09
2023-01-31T05:23:36.806Z,77.04
2023-01-31T05:24:01.031Z,77.08
2023-01-31T05:24:28.850Z,77.09
2023-01-31T05:24:51.991Z,77.12
2023-01-31T05:25:15.586Z,77.04
2023-01-31T05:25:38.953Z,77.12
2023-01-31T05:26:02.127Z,77.14
2023-01-31T05:26:25.382Z,77.22
2023-01-31T05:26:50.835Z,77.06
2023-01-31T05:27:14.534Z,77.06
2023-01-31T05:27:37.647Z,77.14
2023-01-31T05:28:01.076Z,77.06
2023-01-31T05:28:26.228Z,77.16
2023-01-31T05:28:49.545Z,77.06
2023-01-31T05:29:12.815Z,77.13
2023-01-31T05:29:36.288Z,77.07
2023-01-31T05:30:00.799Z,77.07
2023-01-31T05:30:26.179Z,77.04
2023-01-31T05:30:51.678Z,77.07
2023-01-31T05:31:14.880Z,76.99
2023-01-31T05:31:40.108Z,77.03